Flight Track Log - Related Links

Times and Time Zones

All times are in EST time to prevent confusion due to time zone crossing. See the ASA190 flight status page for this flight to view local times or setup timezone preferences in your user account.

Time Position Orientation Groundspeed Altitude Reporting Facility
EST Latitude Longitude Course Direction KTS MPH feet Rate Location/Type
Sun 10:11:24 PM 64.7667 -147.9833 214° Southwest 210 242 3,600  Level Anchorage Center
Sun 10:12:24 PM 64.7333 -148.1333 243° Southwest 260 299 6,700 3,250 Climbing Anchorage Center
Sun 10:13:24 PM 64.7000 -148.3000 245° Southwest 280 322 10,100 2,628 Climbing Anchorage Center
Sun 10:14:25 PM 64.6167 -148.3833 203° Southwest 340 391 12,000 2,331 Climbing Anchorage Center
Sun 10:15:25 PM 64.5333 -148.4500 199° South 360 414 14,800 2,826 Climbing Anchorage Center
Sun 10:16:00 PM 64.3581 -148.8571 214° Southwest  Level FlightAware Approximate
Sun 10:16:26 PM 64.4333 -148.5167 196° South 370 426 17,700  Level Anchorage Center
Sun 10:17:26 PM 64.3333 -148.6000 200° South 380 437 20,100 2,300 Climbing Anchorage Center
Sun 10:18:26 PM 64.2333 -148.6833 200° South 390 449 22,300 2,132 Climbing Anchorage Center
Sun 10:19:27 PM 64.1167 -148.7500 194° South 400 460 24,400 1,884 Climbing Anchorage Center
Sun 10:20:27 PM 64.0167 -148.8333 200° South 410 472 26,100 1,800 Climbing Anchorage Center
Sun 10:21:27 PM 63.9000 -148.9167 197° South 410 472 28,000 1,983 Climbing Anchorage Center
Sun 10:22:28 PM 63.8000 -149.0000 200° South 410 472 30,100 1,587 Climbing Anchorage Center
Sun 10:23:28 PM 63.6833 -149.0833 198° South 420 483 31,200 1,450 Climbing Anchorage Center
Sun 10:24:28 PM 63.5667 -149.1667 198° South 420 483 33,000 893 Climbing Anchorage Center
Sun 10:25:29 PM 63.4500 -149.2500 198° South 420 483 33,000  Level Anchorage Center
Sun 10:26:29 PM 63.3500 -149.3167 197° South 410 472 33,000  Level Anchorage Center
Sun 10:27:29 PM 63.2667 -149.4833 222° Southwest 400 460 33,000  Level Anchorage Center
Sun 10:28:30 PM 63.1667 -149.6500 217° Southwest 420 483 33,000  Level Anchorage Center
Sun 10:29:30 PM 63.0833 -149.8000 219° Southwest 420 483 33,000 -450 Level Anchorage Center
Sun 10:30:30 PM 62.9833 -149.9667 217° Southwest 420 483 32,100 -1,091 Descending Anchorage Center
Sun 10:31:31 PM 62.9000 -150.1167 219° Southwest 410 472 30,800 -1,388 Descending Anchorage Center
Sun 10:32:31 PM 62.8000 -150.2833 217° Southwest 410 472 29,300 -1,438 Descending Anchorage Center
Sun 10:33:32 PM 62.7167 -150.4500 223° Southwest 410 472 27,900 -1,438 Descending Anchorage Center
Sun 10:34:32 PM 62.6167 -150.6000 215° Southwest 410 472 26,400 -1,450 Descending Anchorage Center
Sun 10:35:32 PM 62.5333 -150.7500 220° Southwest 420 483 25,000 -1,488 Descending Anchorage Center
Sun 10:36:33 PM 62.4167 -150.8333 198° South 420 483 23,400 -1,289 Descending Anchorage Center
Sun 10:37:33 PM 62.3000 -150.7833 169° South 410 472 22,400 -1,400 Descending Anchorage Center
Sun 10:38:33 PM 62.2000 -150.7333 167° South 400 460 20,600 -1,835 Descending Anchorage Center
Sun 10:39:34 PM 62.1000 -150.6833 167° South 380 437 18,700 -2,182 Descending Anchorage Center
Sun 10:40:34 PM 62.0000 -150.6167 163° South 370 426 16,200 -2,500 Descending Anchorage Center
Sun 10:42:00 PM 61.8645 -150.5521 167° South  Level FlightAware Approximate
Sun 10:49:00 PM 61.2337 -150.0503 159° South  Level FlightAware Approximate
Sun 10:50:00 PM 61.1741 -149.9982 154° Southeast  Level Estimated
Sun 10:51:00 PM 61.1741 -149.9982 154° Southeast  Level Estimated
Sun 10:52:00 PM 61.1741 -149.9982 154° Southeast  Level Estimated
Sun 10:53:00 PM 61.1741 -149.9982 154° Southeast  Level Estimated
Sun 10:54:00 PM 61.1741 -149.9982 154° Southeast  Level Estimated
Sun 10:55:00 PM 61.1741 -149.9982 154° Southeast  Level Estimated
Sun 10:56:00 PM 61.1741 -149.9982 154° Southeast  Level Estimated
Sun 10:57:00 PM 61.1741 -149.9982 154° Southeast  Level Estimated
Sun 10:58:00 PM 61.1741 -149.9982 154° Southeast  Level Estimated
Sun 10:59:00 PM 61.1741 -149.9982 154° Southeast  Level Estimated
Sun 11:00:00 PM 61.1741 -149.9982 154° Southeast  Level Estimated
Sun 11:01:00 PM 61.1741 -149.9982 154° Southeast  Level Estimated
Sun 11:02:00 PM 61.1741 -149.9982 154° Southeast  Level Estimated

Login

Don't have an account? Register now (free) for customized features, flight alerts, and more!